Time;durP1;ratioP1;P1;durP2;ratioP2;P2;SDS_P1;SDS_P2;PMS_P1;PMS_P2;Temp;Humidity;BMP_temperature;BMP_pressure;BME280_temperature;BME280_humidity;BME280_pressure;Samples;Min_cycle;Max_cycle;Signal;HPM_P1;HPM_P2
2023/06/15 00:00:57;;;;;;;5.40;4.63;;;;;;;;;;5076030;28;20447;-62
2023/06/15 00:03:25;;;;;;;5.90;5.30;;;;;;;;;;5075495;28;20971;-62
2023/06/15 00:05:53;;;;;;;10.93;5.60;;;;;;;;;;5075906;28;20444;-62
2023/06/15 00:08:20;;;;;;;5.23;4.73;;;;;;;;;;5075851;28;20513;-62
2023/06/15 00:10:49;;;;;;;8.87;5.30;;;;;;;;;;5075163;28;20801;-62
2023/06/15 00:13:16;;;;;;;6.93;6.17;;;;;;;;;;5075381;28;20445;-62
2023/06/15 00:15:44;;;;;;;7.67;5.90;;;;;;;;;;5075784;28;20468;-63
2023/06/15 00:18:11;;;;;;;13.70;6.33;;;;;;;;;;5075298;28;20447;-62
2023/06/15 00:20:39;;;;;;;11.40;6.20;;;;;;;;;;5076125;28;20506;-62
2023/06/15 00:23:08;;;;;;;9.00;5.70;;;;;;;;;;5075134;28;20473;-62
2023/06/15 00:25:35;;;;;;;5.67;5.17;;;;;;;;;;5075220;28;20448;-62
2023/06/15 00:28:04;;;;;;;7.00;5.03;;;;;;;;;;5075622;28;20450;-62
2023/06/15 00:30:31;;;;;;;8.73;5.80;;;;;;;;;;5075307;28;20481;-61
2023/06/15 00:32:58;;;;;;;7.07;6.37;;;;;;;;;;5075416;28;20540;-62
2023/06/15 00:35:25;;;;;;;6.20;5.60;;;;;;;;;;5075296;28;20452;-62
2023/06/15 00:37:53;;;;;;;6.90;6.30;;;;;;;;;;5074969;28;20532;-61
2023/06/15 00:40:20;;;;;;;6.93;6.23;;;;;;;;;;5075169;28;20439;-62
2023/06/15 00:42:47;;;;;;;7.23;5.60;;;;;;;;;;5075150;28;20484;-61
2023/06/15 00:45:16;;;;;;;12.33;6.83;;;;;;;;;;5075172;28;20445;-61
2023/06/15 00:47:43;;;;;;;7.63;5.93;;;;;;;;;;5075498;28;20794;-61
2023/06/15 00:50:14;;;;;;;7.70;6.37;;;;;;;;;;5074650;28;20950;-61
2023/06/15 00:52:41;;;;;;;7.67;5.53;;;;;;;;;;5075504;28;20441;-61
2023/06/15 00:55:11;;;;;;;5.87;5.37;;;;;;;;;;5074925;28;20437;-61
2023/06/15 00:57:43;;;;;;;12.13;6.27;;;;;;;;;;5075329;28;20429;-61
2023/06/15 01:00:11;;;;;;;6.53;5.50;;;;;;;;;;5075075;28;20459;-61
2023/06/15 01:02:40;;;;;;;7.47;6.50;;;;;;;;;;5074688;28;20560;-61
2023/06/15 01:05:10;;;;;;;9.23;6.20;;;;;;;;;;5074909;28;20448;-61
2023/06/15 01:07:40;;;;;;;12.17;6.30;;;;;;;;;;5074991;28;20449;-61
2023/06/15 01:10:08;;;;;;;12.00;5.90;;;;;;;;;;5074293;28;20429;-62
2023/06/15 01:12:40;;;;;;;6.73;6.03;;;;;;;;;;5074590;28;20453;-62
2023/06/15 01:15:08;;;;;;;7.60;5.90;;;;;;;;;;5074322;28;20918;-61
2023/06/15 01:17:35;;;;;;;7.93;5.23;;;;;;;;;;5074483;28;20440;-61
2023/06/15 01:20:08;;;;;;;6.30;5.70;;;;;;;;;;5074362;28;20530;-62
2023/06/15 01:22:45;;;;;;;8.93;5.07;;;;;;;;;;5073705;28;20824;-62
2023/06/15 01:25:16;;;;;;;6.47;5.87;;;;;;;;;;5074504;28;20779;-61
2023/06/15 01:27:49;;;;;;;11.63;5.73;;;;;;;;;;5075062;28;20422;-61
2023/06/15 01:30:17;;;;;;;10.50;5.77;;;;;;;;;;5073941;28;20484;-62
2023/06/15 01:32:44;;;;;;;6.20;5.60;;;;;;;;;;5074237;28;20450;-62
2023/06/15 01:35:11;;;;;;;6.30;5.67;;;;;;;;;;5074081;28;20450;-62
2023/06/15 01:37:38;;;;;;;6.90;5.60;;;;;;;;;;5073840;28;20445;-62
2023/06/15 01:40:06;;;;;;;10.67;6.20;;;;;;;;;;5073660;28;20452;-61
2023/06/15 01:42:34;;;;;;;6.37;5.73;;;;;;;;;;5073939;28;20484;-61
2023/06/15 01:45:02;;;;;;;8.80;6.37;;;;;;;;;;5073928;28;20941;-61
2023/06/15 01:47:29;;;;;;;7.30;5.50;;;;;;;;;;5074183;28;20438;-61
2023/06/15 01:49:57;;;;;;;6.70;6.00;;;;;;;;;;5073951;28;20530;-62
2023/06/15 01:52:24;;;;;;;8.53;5.60;;;;;;;;;;5074451;28;20436;-61
2023/06/15 01:54:51;;;;;;;6.53;5.93;;;;;;;;;;5073460;28;20445;-62
2023/06/15 01:57:20;;;;;;;8.40;5.80;;;;;;;;;;5074257;28;20517;-62
2023/06/15 01:59:47;;;;;;;7.97;7.17;;;;;;;;;;5073552;28;20471;-62
2023/06/15 02:02:16;;;;;;;9.73;6.40;;;;;;;;;;5074009;28;20450;-61
2023/06/15 02:04:43;;;;;;;7.67;6.13;;;;;;;;;;5073594;28;20448;-62
2023/06/15 02:07:10;;;;;;;8.43;6.17;;;;;;;;;;5073635;28;20457;-61
2023/06/15 02:09:38;;;;;;;7.50;6.10;;;;;;;;;;5073950;28;20469;-62
2023/06/15 02:12:05;;;;;;;6.30;5.70;;;;;;;;;;5074098;28;20811;-62
2023/06/15 02:14:32;;;;;;;12.67;6.50;;;;;;;;;;5073484;28;20451;-61
2023/06/15 02:16:59;;;;;;;7.60;5.30;;;;;;;;;;5074013;28;20448;-61
2023/06/15 02:19:28;;;;;;;9.20;6.57;;;;;;;;;;5073600;28;20501;-61
2023/06/15 02:21:55;;;;;;;7.80;5.73;;;;;;;;;;5073202;28;20444;-62
2023/06/15 02:24:23;;;;;;;6.77;5.90;;;;;;;;;;5073410;28;20918;-61
2023/06/15 02:26:50;;;;;;;7.33;6.50;;;;;;;;;;5072967;28;20501;-61
2023/06/15 02:29:17;;;;;;;6.27;5.67;;;;;;;;;;5073241;28;20446;-61
2023/06/15 02:31:44;;;;;;;7.80;6.53;;;;;;;;;;5072721;28;20484;-61
2023/06/15 02:34:11;;;;;;;7.33;6.57;;;;;;;;;;5073467;28;20455;-61
2023/06/15 02:36:40;;;;;;;8.53;6.17;;;;;;;;;;5073222;28;20441;-61
2023/06/15 02:39:08;;;;;;;9.40;6.10;;;;;;;;;;5073304;28;20447;-61
2023/06/15 02:41:35;;;;;;;6.70;5.53;;;;;;;;;;5072932;28;20556;-61
2023/06/15 02:44:03;;;;;;;6.23;5.63;;;;;;;;;;5073137;28;20486;-61
2023/06/15 02:46:30;;;;;;;7.93;5.83;;;;;;;;;;5072889;28;20963;-62
2023/06/15 02:48:58;;;;;;;9.83;6.50;;;;;;;;;;5072961;28;20481;-61
2023/06/15 02:51:25;;;;;;;9.60;6.13;;;;;;;;;;5073278;28;20937;-62
2023/06/15 02:53:54;;;;;;;6.67;5.83;;;;;;;;;;5073477;28;20934;-62
2023/06/15 02:56:22;;;;;;;8.30;5.63;;;;;;;;;;5073104;28;20446;-62
2023/06/15 02:58:53;;;;;;;6.70;6.10;;;;;;;;;;5073185;28;20443;-62
2023/06/15 03:01:21;;;;;;;9.17;5.70;;;;;;;;;;5072861;28;20877;-62
2023/06/15 03:03:48;;;;;;;7.83;6.60;;;;;;;;;;5073030;28;20508;-61
2023/06/15 03:06:15;;;;;;;10.50;6.47;;;;;;;;;;5072941;28;20446;-62
2023/06/15 03:08:43;;;;;;;8.93;6.03;;;;;;;;;;5072735;28;20442;-62
2023/06/15 03:11:11;;;;;;;10.17;6.47;;;;;;;;;;5072884;28;20919;-61
2023/06/15 03:13:39;;;;;;;8.40;6.67;;;;;;;;;;5072950;28;20450;-61
2023/06/15 03:16:07;;;;;;;6.43;5.77;;;;;;;;;;5072832;28;20441;-61
2023/06/15 03:18:34;;;;;;;7.87;6.77;;;;;;;;;;5072929;28;20448;-61
2023/06/15 03:21:01;;;;;;;11.63;5.50;;;;;;;;;;5072479;28;20456;-61
2023/06/15 03:23:28;;;;;;;7.90;6.57;;;;;;;;;;5072500;28;20474;-61
2023/06/15 03:25:55;;;;;;;7.67;6.60;;;;;;;;;;5072392;28;20444;-61
2023/06/15 03:28:24;;;;;;;7.60;6.80;;;;;;;;;;5072523;28;20452;-61
2023/06/15 03:30:53;;;;;;;8.30;6.20;;;;;;;;;;5072551;28;20530;-62
2023/06/15 03:33:22;;;;;;;7.80;6.40;;;;;;;;;;5072706;28;20441;-61
2023/06/15 03:35:49;;;;;;;9.53;6.57;;;;;;;;;;5072723;28;20444;-62
2023/06/15 03:38:17;;;;;;;13.53;7.97;;;;;;;;;;5072436;28;20437;-62
2023/06/15 03:40:44;;;;;;;11.17;6.93;;;;;;;;;;5072628;28;20450;-62
2023/06/15 03:43:13;;;;;;;9.57;6.63;;;;;;;;;;5073236;28;20504;-62
2023/06/15 03:45:41;;;;;;;6.90;6.20;;;;;;;;;;5073693;28;20517;-62
2023/06/15 03:48:08;;;;;;;8.17;5.97;;;;;;;;;;5089820;28;20435;-62
2023/06/15 03:50:36;;;;;;;7.20;6.50;;;;;;;;;;5095532;28;20458;-62
2023/06/15 03:53:03;;;;;;;6.33;5.77;;;;;;;;;;5096176;28;20445;-61
2023/06/15 03:55:30;;;;;;;7.10;6.03;;;;;;;;;;5096331;28;20440;-62
2023/06/15 03:57:57;;;;;;;9.00;6.60;;;;;;;;;;5095686;28;20445;-62
2023/06/15 04:00:24;;;;;;;10.17;5.70;;;;;;;;;;5095749;28;20442;-62
2023/06/15 04:02:53;;;;;;;15.53;6.70;;;;;;;;;;5095896;28;20493;-62
2023/06/15 04:05:22;;;;;;;8.63;7.30;;;;;;;;;;5096109;28;20447;-61
2023/06/15 04:07:51;;;;;;;7.80;6.53;;;;;;;;;;5096019;28;20470;-62
2023/06/15 04:10:18;;;;;;;12.93;6.30;;;;;;;;;;5096119;28;20448;-62
2023/06/15 04:12:45;;;;;;;9.70;6.27;;;;;;;;;;5095774;28;20446;-61
2023/06/15 04:15:12;;;;;;;6.57;5.97;;;;;;;;;;5096006;28;20559;-61
2023/06/15 04:17:39;;;;;;;11.40;6.23;;;;;;;;;;5095620;28;20443;-61
2023/06/15 04:20:09;;;;;;;6.50;5.67;;;;;;;;;;5096127;28;20451;-62
2023/06/15 04:22:36;;;;;;;10.80;6.07;;;;;;;;;;5095650;28;20932;-62
2023/06/15 04:25:04;;;;;;;9.70;5.77;;;;;;;;;;5095502;28;20999;-62
2023/06/15 04:27:34;;;;;;;12.13;6.90;;;;;;;;;;5095617;28;20451;-61
2023/06/15 04:30:01;;;;;;;8.77;5.90;;;;;;;;;;5095092;28;20484;-61
2023/06/15 04:32:30;;;;;;;7.37;6.53;;;;;;;;;;5095314;28;20436;-61
2023/06/15 04:34:57;;;;;;;9.40;6.27;;;;;;;;;;5095415;28;20497;-62
2023/06/15 04:37:28;;;;;;;10.33;6.50;;;;;;;;;;5095538;28;20536;-61
2023/06/15 04:39:56;;;;;;;7.20;6.50;;;;;;;;;;5095701;28;20428;-62
2023/06/15 04:42:23;;;;;;;5.80;5.30;;;;;;;;;;5095299;28;20483;-61
2023/06/15 04:44:51;;;;;;;9.43;5.90;;;;;;;;;;5095226;28;20532;-61
2023/06/15 04:47:18;;;;;;;6.00;5.40;;;;;;;;;;5094903;28;20528;-63
2023/06/15 04:49:45;;;;;;;7.30;5.30;;;;;;;;;;5094917;28;20442;-60
2023/06/15 04:52:12;;;;;;;7.07;5.93;;;;;;;;;;5095043;28;20445;-61
2023/06/15 04:54:41;;;;;;;7.90;6.63;;;;;;;;;;5095108;28;20443;-62
2023/06/15 04:57:08;;;;;;;7.57;5.77;;;;;;;;;;5094873;28;21021;-61
2023/06/15 04:59:38;;;;;;;8.80;6.23;;;;;;;;;;5094754;28;20448;-61
2023/06/15 05:02:06;;;;;;;6.70;5.40;;;;;;;;;;5094897;28;20515;-61
2023/06/15 05:04:33;;;;;;;6.63;5.93;;;;;;;;;;5094942;28;20472;-61
2023/06/15 05:07:01;;;;;;;7.57;5.90;;;;;;;;;;5094752;28;20448;-61
2023/06/15 05:09:28;;;;;;;8.83;5.63;;;;;;;;;;5094917;28;20490;-60
2023/06/15 05:11:57;;;;;;;7.53;5.73;;;;;;;;;;5094439;28;20442;-61
2023/06/15 05:14:26;;;;;;;6.70;6.00;;;;;;;;;;5094611;28;20444;-61
2023/06/15 05:16:53;;;;;;;8.60;6.00;;;;;;;;;;5093901;28;20448;-61
2023/06/15 05:19:20;;;;;;;9.83;6.10;;;;;;;;;;5094574;28;20437;-61
2023/06/15 05:21:48;;;;;;;10.53;5.77;;;;;;;;;;5094609;28;20452;-60
2023/06/15 05:24:15;;;;;;;9.50;6.67;;;;;;;;;;5094512;28;20468;-61
2023/06/15 05:26:42;;;;;;;7.50;5.93;;;;;;;;;;5094354;28;20444;-60
2023/06/15 05:29:11;;;;;;;10.17;6.30;;;;;;;;;;5094048;28;20450;-60
2023/06/15 05:31:38;;;;;;;11.63;5.80;;;;;;;;;;5094084;28;20835;-60
2023/06/15 05:34:05;;;;;;;7.50;6.20;;;;;;;;;;5094261;28;20788;-61
2023/06/15 05:36:34;;;;;;;8.60;5.40;;;;;;;;;;5094095;28;20926;-60
2023/06/15 05:39:01;;;;;;;6.67;5.30;;;;;;;;;;5094291;28;20518;-61
2023/06/15 05:41:28;;;;;;;6.63;5.50;;;;;;;;;;5094389;28;20436;-60
2023/06/15 05:43:55;;;;;;;7.40;6.00;;;;;;;;;;5094252;28;20489;-61
2023/06/15 05:46:24;;;;;;;6.97;5.67;;;;;;;;;;5094288;28;20439;-61
2023/06/15 05:48:51;;;;;;;9.63;6.13;;;;;;;;;;5093865;28;20451;-61
2023/06/15 05:51:18;;;;;;;11.63;6.10;;;;;;;;;;5094156;28;20819;-61
2023/06/15 05:53:45;;;;;;;8.60;6.23;;;;;;;;;;5094205;28;20437;-61
2023/06/15 05:56:13;;;;;;;12.37;6.70;;;;;;;;;;5094346;28;20446;-60
2023/06/15 05:58:40;;;;;;;6.63;6.03;;;;;;;;;;5093895;28;20436;-60
2023/06/15 06:01:07;;;;;;;8.37;6.17;;;;;;;;;;5094274;28;20446;-60
2023/06/15 06:03:36;;;;;;;9.00;5.17;;;;;;;;;;5094058;28;20451;-60
2023/06/15 06:06:03;;;;;;;9.17;5.67;;;;;;;;;;5093868;28;20521;-60
2023/06/15 06:08:30;;;;;;;9.47;5.67;;;;;;;;;;5093260;28;20796;-60
2023/06/15 06:10:57;;;;;;;5.40;4.67;;;;;;;;;;5093813;28;20449;-60
2023/06/15 06:13:25;;;;;;;6.17;5.20;;;;;;;;;;5093709;28;20452;-60
2023/06/15 06:15:52;;;;;;;7.30;5.20;;;;;;;;;;5093716;28;20450;-60
2023/06/15 06:18:19;;;;;;;6.43;5.43;;;;;;;;;;5093338;28;20436;-60
2023/06/15 06:20:48;;;;;;;10.03;7.13;;;;;;;;;;5094398;28;20835;-60
2023/06/15 06:23:15;;;;;;;8.40;5.63;;;;;;;;;;5093563;28;20441;-60
2023/06/15 06:25:42;;;;;;;17.13;5.60;;;;;;;;;;5093903;28;20480;-60
2023/06/15 06:28:09;;;;;;;7.30;5.73;;;;;;;;;;5093508;28;20439;-60
2023/06/15 06:30:38;;;;;;;13.80;5.73;;;;;;;;;;5093467;28;20480;-60
2023/06/15 06:33:05;;;;;;;7.67;5.43;;;;;;;;;;5093139;28;20445;-60
2023/06/15 06:35:32;;;;;;;8.60;5.73;;;;;;;;;;5093227;28;20503;-61
2023/06/15 06:38:01;;;;;;;10.77;5.80;;;;;;;;;;5093336;28;20954;-60
2023/06/15 06:40:29;;;;;;;8.73;5.57;;;;;;;;;;5093434;28;20490;-60
2023/06/15 06:42:56;;;;;;;14.40;5.33;;;;;;;;;;5093639;28;20794;-60
2023/06/15 06:45:23;;;;;;;12.13;5.33;;;;;;;;;;5093329;28;20806;-60
2023/06/15 06:47:56;;;;;;;6.47;5.77;;;;;;;;;;5093000;28;20454;-61
2023/06/15 06:50:23;;;;;;;7.23;5.50;;;;;;;;;;5093313;28;20434;-60
2023/06/15 06:52:51;;;;;;;11.87;5.93;;;;;;;;;;5093069;28;20474;-60
2023/06/15 06:55:19;;;;;;;7.47;5.17;;;;;;;;;;5093298;28;20464;-60
2023/06/15 06:57:46;;;;;;;7.97;5.40;;;;;;;;;;5093356;28;20435;-61
2023/06/15 07:00:14;;;;;;;9.23;5.30;;;;;;;;;;5093086;28;20446;-60
2023/06/15 07:02:41;;;;;;;6.40;5.80;;;;;;;;;;5093797;28;20440;-60
2023/06/15 07:05:08;;;;;;;7.50;5.77;;;;;;;;;;5093044;28;20478;-60
2023/06/15 07:07:36;;;;;;;9.00;5.70;;;;;;;;;;5093519;28;20774;-60
2023/06/15 07:10:03;;;;;;;12.67;5.77;;;;;;;;;;5093263;28;20514;-60
2023/06/15 07:12:32;;;;;;;9.67;5.70;;;;;;;;;;5093196;28;20871;-62
2023/06/15 07:14:59;;;;;;;9.47;5.30;;;;;;;;;;5092700;28;20444;-61
2023/06/15 07:17:26;;;;;;;9.00;5.17;;;;;;;;;;5092895;28;20899;-61
2023/06/15 07:19:53;;;;;;;8.83;4.93;;;;;;;;;;5093047;28;20447;-61
2023/06/15 07:22:23;;;;;;;8.33;4.93;;;;;;;;;;5096684;28;20435;-61
2023/06/15 07:24:50;;;;;;;12.50;5.20;;;;;;;;;;5096811;28;20478;-61
2023/06/15 07:27:17;;;;;;;7.33;5.10;;;;;;;;;;5097146;28;20439;-61
2023/06/15 07:29:46;;;;;;;9.13;5.80;;;;;;;;;;5096236;28;20533;-61
2023/06/15 07:32:13;;;;;;;5.90;5.30;;;;;;;;;;5096909;28;20428;-61
2023/06/15 07:34:41;;;;;;;8.47;5.30;;;;;;;;;;5096401;28;20454;-61
2023/06/15 07:37:08;;;;;;;7.60;5.00;;;;;;;;;;5096747;28;20835;-61
2023/06/15 07:39:36;;;;;;;8.57;6.10;;;;;;;;;;5096626;28;20533;-61
2023/06/15 07:42:03;;;;;;;6.67;5.80;;;;;;;;;;5096564;28;20439;-61
2023/06/15 07:44:31;;;;;;;10.07;6.00;;;;;;;;;;5096141;28;20478;-62
2023/06/15 07:46:59;;;;;;;9.43;5.77;;;;;;;;;;5096231;28;20454;-61
2023/06/15 07:49:26;;;;;;;13.87;5.40;;;;;;;;;;5096138;28;20443;-61
2023/06/15 07:51:54;;;;;;;11.33;6.00;;;;;;;;;;5096045;28;20442;-60
2023/06/15 07:54:21;;;;;;;12.87;5.83;;;;;;;;;;5095940;28;20443;-60
2023/06/15 07:56:48;;;;;;;6.90;5.10;;;;;;;;;;5096313;28;20542;-61
2023/06/15 07:59:15;;;;;;;6.83;5.10;;;;;;;;;;5096303;28;20788;-61
2023/06/15 08:01:42;;;;;;;6.53;5.47;;;;;;;;;;5096664;28;20789;-61
2023/06/15 08:04:11;;;;;;;7.70;5.13;;;;;;;;;;5096153;28;20446;-61
2023/06/15 08:06:38;;;;;;;10.80;6.23;;;;;;;;;;5095880;28;20918;-60
2023/06/15 08:09:07;;;;;;;6.13;4.77;;;;;;;;;;5096174;28;20804;-60
2023/06/15 08:11:34;;;;;;;5.30;4.80;;;;;;;;;;5096062;28;20597;-61
2023/06/15 08:14:01;;;;;;;6.83;4.90;;;;;;;;;;5095855;28;20542;-60
2023/06/15 08:16:28;;;;;;;8.43;6.00;;;;;;;;;;5095568;28;20925;-61
2023/06/15 08:18:55;;;;;;;6.90;5.00;;;;;;;;;;5095909;28;20431;-61
2023/06/15 08:21:24;;;;;;;9.10;5.10;;;;;;;;;;5095772;28;20450;-61
2023/06/15 08:23:51;;;;;;;11.83;6.63;;;;;;;;;;5095626;28;20448;-60
2023/06/15 08:26:19;;;;;;;5.30;4.47;;;;;;;;;;5095617;28;20475;-60
2023/06/15 08:28:46;;;;;;;8.03;4.57;;;;;;;;;;5095394;28;20456;-60
2023/06/15 08:31:13;;;;;;;6.30;4.67;;;;;;;;;;5094955;28;20475;-61
2023/06/15 08:33:40;;;;;;;6.50;4.50;;;;;;;;;;5095283;28;20530;-61
2023/06/15 08:36:12;;;;;;;6.17;5.57;;;;;;;;;;5095288;28;21028;-60
2023/06/15 08:38:41;;;;;;;7.40;6.40;;;;;;;;;;5095323;28;20893;-60
2023/06/15 08:41:08;;;;;;;6.20;4.73;;;;;;;;;;5095592;28;20451;-60
2023/06/15 08:43:36;;;;;;;6.10;4.53;;;;;;;;;;5095464;28;20439;-61
2023/06/15 08:46:03;;;;;;;9.17;5.40;;;;;;;;;;5095288;28;20473;-61
2023/06/15 08:48:31;;;;;;;8.73;4.40;;;;;;;;;;5095371;28;20440;-61
2023/06/15 08:50:58;;;;;;;12.00;4.60;;;;;;;;;;5095259;28;20448;-61
2023/06/15 08:53:26;;;;;;;5.30;4.80;;;;;;;;;;5095707;28;20436;-60
2023/06/15 08:55:54;;;;;;;5.57;4.93;;;;;;;;;;5095098;28;20446;-61
2023/06/15 08:58:22;;;;;;;5.67;4.83;;;;;;;;;;5095950;28;20466;-61
2023/06/15 09:00:49;;;;;;;9.57;5.57;;;;;;;;;;5095211;28;20439;-61
2023/06/15 09:03:19;;;;;;;6.70;4.53;;;;;;;;;;5095063;28;20502;-60
2023/06/15 09:05:46;;;;;;;17.33;5.27;;;;;;;;;;5094498;28;20980;-61
2023/06/15 09:08:14;;;;;;;7.83;4.30;;;;;;;;;;5094691;28;20459;-61
2023/06/15 09:10:41;;;;;;;7.03;4.63;;;;;;;;;;5094849;28;20441;-61
2023/06/15 09:13:13;;;;;;;15.27;5.63;;;;;;;;;;5094639;28;20448;-61
2023/06/15 09:15:43;;;;;;;12.97;6.83;;;;;;;;;;5095216;28;20433;-61
2023/06/15 09:18:13;;;;;;;4.83;4.40;;;;;;;;;;5094736;28;20443;-61
2023/06/15 09:20:40;;;;;;;9.73;4.63;;;;;;;;;;5094671;28;20543;-61
2023/06/15 09:23:11;;;;;;;15.60;5.50;;;;;;;;;;5094633;28;20467;-61
2023/06/15 09:25:41;;;;;;;9.77;5.00;;;;;;;;;;5094865;28;20464;-61
2023/06/15 09:28:09;;;;;;;7.50;5.20;;;;;;;;;;5094344;28;20452;-61
2023/06/15 09:30:37;;;;;;;5.73;5.07;;;;;;;;;;5094064;28;20580;-61
2023/06/15 09:33:13;;;;;;;7.33;4.87;;;;;;;;;;5094221;28;20452;-61
2023/06/15 09:35:56;;;;;;;9.47;5.40;;;;;;;;;;5094712;28;20846;-61
2023/06/15 09:38:23;;;;;;;9.50;5.30;;;;;;;;;;5094500;28;20424;-60
2023/06/15 09:40:51;;;;;;;8.93;5.10;;;;;;;;;;5094374;28;20463;-61
2023/06/15 09:43:19;;;;;;;8.83;4.97;;;;;;;;;;5093221;28;20447;-61
2023/06/15 09:45:52;;;;;;;7.57;4.73;;;;;;;;;;5093806;28;20981;-61
2023/06/15 09:48:21;;;;;;;7.70;5.57;;;;;;;;;;5093885;28;20456;-61
2023/06/15 09:50:51;;;;;;;5.40;4.03;;;;;;;;;;5093641;28;20447;-61
2023/06/15 09:53:19;;;;;;;8.57;5.23;;;;;;;;;;5093894;28;20454;-61
2023/06/15 09:55:47;;;;;;;5.60;4.33;;;;;;;;;;5094074;28;20441;-61
2023/06/15 09:58:15;;;;;;;12.70;5.10;;;;;;;;;;5094771;28;20463;-61
2023/06/15 10:00:43;;;;;;;5.77;4.10;;;;;;;;;;5093967;28;20457;-61
2023/06/15 10:03:12;;;;;;;13.33;5.27;;;;;;;;;;5094055;28;20443;-61
2023/06/15 10:05:43;;;;;;;7.67;5.00;;;;;;;;;;5093551;28;20474;-61
2023/06/15 10:08:12;;;;;;;8.50;4.73;;;;;;;;;;5093872;28;20462;-61
2023/06/15 10:10:42;;;;;;;6.60;4.93;;;;;;;;;;5093541;28;20454;-60
2023/06/15 10:13:11;;;;;;;5.63;4.90;;;;;;;;;;5093640;28;20444;-61
2023/06/15 10:15:39;;;;;;;6.53;5.63;;;;;;;;;;5093796;28;20440;-61
2023/06/15 10:18:08;;;;;;;5.60;4.67;;;;;;;;;;5093715;28;20474;-61
2023/06/15 10:20:35;;;;;;;6.87;6.00;;;;;;;;;;5093900;28;20444;-61
2023/06/15 10:23:07;;;;;;;4.57;4.27;;;;;;;;;;5093653;28;20533;-61
2023/06/15 10:25:35;;;;;;;4.90;4.40;;;;;;;;;;5094148;28;20795;-61
2023/06/15 10:28:09;;;;;;;5.40;4.20;;;;;;;;;;5093541;28;20450;-61
2023/06/15 10:30:40;;;;;;;7.93;6.27;;;;;;;;;;5093194;28;20517;-61
2023/06/15 10:33:16;;;;;;;7.63;4.60;;;;;;;;;;5093388;28;20908;-61
2023/06/15 10:35:46;;;;;;;5.40;4.67;;;;;;;;;;5093371;28;20407;-61
2023/06/15 10:38:20;;;;;;;6.60;4.50;;;;;;;;;;5093187;28;20452;-61
2023/06/15 10:40:49;;;;;;;5.70;4.40;;;;;;;;;;5093357;28;20901;-61
2023/06/15 10:43:20;;;;;;;9.90;5.07;;;;;;;;;;5093378;28;20437;-61
2023/06/15 10:45:47;;;;;;;6.37;4.20;;;;;;;;;;5092994;28;20513;-62
2023/06/15 10:48:25;;;;;;;4.60;4.20;;;;;;;;;;5092978;28;20481;-62
2023/06/15 10:50:52;;;;;;;12.80;4.60;;;;;;;;;;5093121;28;20434;-61
2023/06/15 10:53:25;;;;;;;5.13;4.47;;;;;;;;;;5093254;28;20472;-61
2023/06/15 10:55:55;;;;;;;5.40;4.60;;;;;;;;;;5096172;28;20477;-62
2023/06/15 10:58:24;;;;;;;10.50;4.40;;;;;;;;;;5097443;28;20821;-62
2023/06/15 11:01:05;;;;;;;10.97;5.07;;;;;;;;;;5097743;28;20519;-62
2023/06/15 11:03:33;;;;;;;5.03;4.40;;;;;;;;;;5097125;28;20491;-62
2023/06/15 11:06:08;;;;;;;5.30;4.70;;;;;;;;;;5097002;28;20485;-62
2023/06/15 11:08:50;;;;;;;6.93;4.10;;;;;;;;;;5097434;28;20426;-62
2023/06/15 11:11:19;;;;;;;10.60;4.97;;;;;;;;;;5097037;28;20432;-62
2023/06/15 11:13:57;;;;;;;7.60;5.20;;;;;;;;;;5097209;28;20446;-62
2023/06/15 11:16:28;;;;;;;9.00;5.20;;;;;;;;;;5097927;28;20779;-62
2023/06/15 11:18:59;;;;;;;4.90;4.50;;;;;;;;;;5097127;28;20425;-61
2023/06/15 11:21:28;;;;;;;6.80;4.73;;;;;;;;;;5097124;28;20456;-62
2023/06/15 11:23:57;;;;;;;8.97;4.93;;;;;;;;;;5096647;28;20449;-61
2023/06/15 11:26:28;;;;;;;12.87;6.50;;;;;;;;;;5096598;28;20528;-61
2023/06/15 11:28:57;;;;;;;7.30;4.70;;;;;;;;;;5096642;28;20434;-62
2023/06/15 11:31:24;;;;;;;6.93;4.30;;;;;;;;;;5096447;28;20556;-62
2023/06/15 11:33:51;;;;;;;4.70;3.73;;;;;;;;;;5096516;28;20919;-63
2023/06/15 11:36:19;;;;;;;5.17;4.70;;;;;;;;;;5097030;28;20451;-62
2023/06/15 11:38:46;;;;;;;9.93;4.87;;;;;;;;;;5096740;28;20454;-61
2023/06/15 11:41:15;;;;;;;8.27;4.53;;;;;;;;;;5096673;28;20435;-61
2023/06/15 11:43:45;;;;;;;6.77;4.23;;;;;;;;;;5096536;28;20533;-61
2023/06/15 11:46:13;;;;;;;8.13;4.70;;;;;;;;;;5096839;28;20482;-61
2023/06/15 11:48:41;;;;;;;5.60;4.70;;;;;;;;;;5096526;28;20413;-61
2023/06/15 11:51:09;;;;;;;7.50;4.93;;;;;;;;;;5096593;28;20511;-61
2023/06/15 11:53:37;;;;;;;7.50;4.67;;;;;;;;;;5088901;28;20437;-61
2023/06/15 11:56:04;;;;;;;7.90;4.47;;;;;;;;;;5075062;28;20450;-61
2023/06/15 11:58:34;;;;;;;6.60;4.40;;;;;;;;;;5075276;28;20433;-61
2023/06/15 12:01:02;;;;;;;5.60;3.93;;;;;;;;;;5076468;28;20915;-61
2023/06/15 12:03:30;;;;;;;6.53;4.97;;;;;;;;;;5075832;28;20751;-61
2023/06/15 12:05:58;;;;;;;4.83;4.40;;;;;;;;;;5074923;28;21035;-61
2023/06/15 12:08:26;;;;;;;4.83;4.10;;;;;;;;;;5075010;28;20826;-61
2023/06/15 12:10:55;;;;;;;5.13;4.43;;;;;;;;;;5075193;28;20417;-61
2023/06/15 12:13:23;;;;;;;4.53;3.80;;;;;;;;;;5075149;28;20416;-61
2023/06/15 12:15:51;;;;;;;10.10;4.07;;;;;;;;;;5075532;28;20411;-61
2023/06/15 12:18:20;;;;;;;5.57;4.60;;;;;;;;;;5075481;28;20430;-61
2023/06/15 12:20:47;;;;;;;4.17;3.87;;;;;;;;;;5075171;28;20491;-61
2023/06/15 12:23:26;;;;;;;7.20;4.43;;;;;;;;;;5075351;28;20448;-60
2023/06/15 12:25:55;;;;;;;5.40;3.93;;;;;;;;;;5075174;28;20466;-60
2023/06/15 12:28:22;;;;;;;7.47;4.40;;;;;;;;;;5075053;28;20531;-60
2023/06/15 12:30:51;;;;;;;8.40;4.40;;;;;;;;;;5075134;28;20478;-60
2023/06/15 12:33:30;;;;;;;4.17;3.77;;;;;;;;;;5075152;28;20518;-60
2023/06/15 12:35:58;;;;;;;8.53;4.10;;;;;;;;;;5075485;28;20514;-61
2023/06/15 12:38:25;;;;;;;7.30;3.70;;;;;;;;;;5075026;28;20412;-61
2023/06/15 12:40:53;;;;;;;4.20;3.90;;;;;;;;;;5075016;28;20422;-61
2023/06/15 12:43:21;;;;;;;7.33;4.10;;;;;;;;;;5074842;28;20410;-61
2023/06/15 12:45:48;;;;;;;7.43;4.27;;;;;;;;;;5074444;28;20500;-60
2023/06/15 12:48:16;;;;;;;5.90;3.80;;;;;;;;;;5074524;28;20444;-61
2023/06/15 12:50:45;;;;;;;6.20;3.93;;;;;;;;;;5074727;28;20522;-61
2023/06/15 12:53:12;;;;;;;5.93;3.50;;;;;;;;;;5074981;28;20441;-61
2023/06/15 12:55:39;;;;;;;5.77;3.80;;;;;;;;;;5085908;28;20446;-61
2023/06/15 12:58:07;;;;;;;9.80;4.40;;;;;;;;;;5095128;28;20951;-61
2023/06/15 13:00:35;;;;;;;6.90;3.93;;;;;;;;;;5094762;28;20536;-60
2023/06/15 13:03:05;;;;;;;4.77;3.67;;;;;;;;;;5094836;28;20449;-60
2023/06/15 13:05:33;;;;;;;7.77;3.80;;;;;;;;;;5094424;28;20494;-60
2023/06/15 13:08:02;;;;;;;11.40;4.47;;;;;;;;;;5094364;28;20477;-60
2023/06/15 13:10:30;;;;;;;6.53;3.97;;;;;;;;;;5094618;28;20429;-61
2023/06/15 13:12:57;;;;;;;4.10;3.73;;;;;;;;;;5094672;28;20443;-60
2023/06/15 13:15:24;;;;;;;6.73;3.83;;;;;;;;;;5094232;28;20439;-60
2023/06/15 13:17:52;;;;;;;7.70;4.50;;;;;;;;;;5094172;28;20444;-61
2023/06/15 13:20:19;;;;;;;5.70;3.90;;;;;;;;;;5094065;28;20442;-61
2023/06/15 13:22:47;;;;;;;4.67;3.77;;;;;;;;;;5094400;28;20445;-61
2023/06/15 13:25:16;;;;;;;5.63;3.60;;;;;;;;;;5094163;28;20437;-61
2023/06/15 13:27:43;;;;;;;4.80;4.20;;;;;;;;;;5094457;28;21016;-61
2023/06/15 13:30:12;;;;;;;5.90;3.90;;;;;;;;;;5094203;28;20486;-61
2023/06/15 13:32:40;;;;;;;4.00;3.60;;;;;;;;;;5093938;28;20430;-61
2023/06/15 13:35:08;;;;;;;12.13;4.27;;;;;;;;;;5093841;28;20451;-61
2023/06/15 13:37:36;;;;;;;7.00;3.90;;;;;;;;;;5093953;28;20453;-61
2023/06/15 13:40:06;;;;;;;5.03;3.63;;;;;;;;;;5093793;28;20465;-61
2023/06/15 13:42:35;;;;;;;6.63;3.83;;;;;;;;;;5094065;28;20543;-61
2023/06/15 13:45:05;;;;;;;7.67;3.90;;;;;;;;;;5094152;28;20541;-61
2023/06/15 13:47:33;;;;;;;4.73;4.10;;;;;;;;;;5093733;28;20474;-61
2023/06/15 13:50:00;;;;;;;6.73;4.10;;;;;;;;;;5093927;28;20441;-61
2023/06/15 13:52:28;;;;;;;4.40;3.60;;;;;;;;;;5093925;28;20449;-61
2023/06/15 13:54:55;;;;;;;5.60;4.50;;;;;;;;;;5093652;28;20433;-61
2023/06/15 13:57:22;;;;;;;4.80;3.30;;;;;;;;;;5093918;28;20436;-61
2023/06/15 13:59:51;;;;;;;6.17;3.87;;;;;;;;;;5093612;28;20450;-61
2023/06/15 14:02:19;;;;;;;4.70;4.30;;;;;;;;;;5093464;28;20452;-61
2023/06/15 14:04:46;;;;;;;4.40;4.00;;;;;;;;;;5093132;28;20968;-61
2023/06/15 14:07:14;;;;;;;6.70;4.83;;;;;;;;;;5093641;28;20546;-61
2023/06/15 14:09:42;;;;;;;4.70;4.20;;;;;;;;;;5093245;28;20528;-61
2023/06/15 14:12:10;;;;;;;5.20;3.10;;;;;;;;;;5093706;28;20447;-61
2023/06/15 14:14:38;;;;;;;5.13;3.57;;;;;;;;;;5093399;28;20419;-62
2023/06/15 14:17:07;;;;;;;4.23;3.67;;;;;;;;;;5093383;28;20423;-61
2023/06/15 14:19:35;;;;;;;4.30;3.90;;;;;;;;;;5093486;28;20785;-61
2023/06/15 14:22:02;;;;;;;10.00;3.77;;;;;;;;;;5093159;28;20505;-61
2023/06/15 14:24:29;;;;;;;8.00;4.57;;;;;;;;;;5092796;28;20889;-61
2023/06/15 14:26:56;;;;;;;4.70;3.63;;;;;;;;;;5092866;28;20477;-61
2023/06/15 14:29:23;;;;;;;4.90;4.00;;;;;;;;;;5092832;28;20921;-61
2023/06/15 14:31:50;;;;;;;4.50;3.47;;;;;;;;;;5092768;28;20555;-61
2023/06/15 14:34:20;;;;;;;4.30;3.90;;;;;;;;;;5093028;28;20482;-61
2023/06/15 14:36:48;;;;;;;9.20;4.43;;;;;;;;;;5093086;28;20453;-61
2023/06/15 14:39:16;;;;;;;3.90;3.60;;;;;;;;;;5093521;28;20455;-61
2023/06/15 14:41:43;;;;;;;4.77;3.90;;;;;;;;;;5093072;28;20415;-61
2023/06/15 14:44:11;;;;;;;4.20;3.77;;;;;;;;;;5092791;28;20441;-61
2023/06/15 14:46:41;;;;;;;5.87;4.27;;;;;;;;;;5092477;28;20440;-61